Sy Makai — 9HB5578 — position and weather

sailwx.info

Track history (hours):
 
Tides and Currents Weather Stations Pressure Air Temp Water Temp Dewpoint Dewpoint Depression Visibility Wind Speed Wind Dir Waves Ship Positions

Sy Makai

Last reported at 2018-Aug-19 04:40 UTC. Time now 2018-Aug-19 15:18 UTC.
Position N 39°22' E 002°47'.

Length 24 m.

Type: Sailing vessel. MMSI: 215000861.

Date/timePositionNaut miles runAvg speedWind from/ knotsBaromVisibWave heightAir tempDewpointWater temp
2018-Aug-19 04:40N 39°22' E 002°47'1 8.8
2018-Aug-19 04:30N 39°22' E 002°45'4 8.6
2018-Aug-19 04:00N 39°26' E 002°42'4 8.6
2018-Aug-19 03:30N 39°30' E 002°40'4 8.2
2018-Aug-19 03:00N 39°34' E 002°38'  
2018-Aug-16 18:42N 39°34' E 002°38'0 0.0
2018-Aug-16 18:27N 39°34' E 002°38'0 0.0
2018-Aug-16 18:00N 39°34' E 002°38'0 0.7
2018-Aug-16 17:30N 39°34' E 002°38'3 6.3
2018-Aug-16 17:00N 39°30' E 002°38'2 4.8
2018-Aug-16 16:30N 39°31' E 002°35'0 0.8
2018-Aug-16 15:58N 39°32' E 002°35'0 0.0
2018-Aug-16 15:28N 39°32' E 002°35'0 0.0
2018-Aug-16 14:58N 39°32' E 002°35'0 0.7
2018-Aug-16 14:31N 39°32' E 002°35'3 5.1
2018-Aug-16 14:00N 39°30' E 002°37'2 4.8
2018-Aug-16 13:30N 39°32' E 002°39'2 4.8
2018-Aug-16 13:00N 39°34' E 002°38'0 0.0
2018-Aug-16 12:30N 39°34' E 002°38'0 0.0
2018-Aug-16 12:00N 39°34' E 002°38'0 0.0
2018-Aug-16 11:30N 39°34' E 002°38'0 0.0
2018-Aug-14 13:53N 39°34' E 002°38'0 0.0
2018-Aug-14 13:29N 39°34' E 002°38'0 0.0
2018-Aug-14 13:00N 39°34' E 002°38'2 4.6
2018-Aug-14 12:30N 39°32' E 002°39'3 5.8
2018-Aug-14 12:00N 39°30' E 002°35'4 7.1
2018-Aug-14 11:30N 39°28' E 002°33'2 3.8
2018-Aug-14 11:00N 39°26' E 002°31'1 0.0
2018-Aug-13 14:16N 39°27' E 002°31'2 8.0
2018-Aug-13 14:00N 39°28' E 002°33'2 3.3
2018-Aug-13 13:31N 39°29' E 002°34'4 8.1
2018-Aug-13 13:00N 39°30' E 002°39'2 4.5
2018-Aug-13 12:30N 39°33' E 002°39'2 3.1
2018-Aug-13 12:00N 39°34' E 002°38'0 0.0
2018-Aug-13 11:30N 39°34' E 002°38'0 0.0
2018-Aug-13 10:57N 39°34' E 002°38'0 0.0
2018-Aug-13 10:30N 39°34' E 002°38'0 0.0
2018-Aug-13 09:54N 39°34' E 002°38'0 0.0
2018-Aug-13 09:30N 39°34' E 002°38'0 0.0
2018-Aug-13 08:54N 39°34' E 002°38'0 0.0
2018-Aug-13 08:30N 39°34' E 002°38'0 0.0
2018-Aug-13 08:00N 39°34' E 002°38'0 0.0
2018-Aug-13 07:30N 39°34' E 002°38'0 0.0
2018-Aug-13 06:57N 39°34' E 002°38'0 0.0
2018-Aug-13 06:30N 39°34' E 002°38'0 0.0
2018-Aug-13 06:00N 39°34' E 002°38'0 0.0
2018-Aug-13 05:27N 39°34' E 002°38'0 0.0
2018-Aug-13 05:00N 39°34' E 002°38'0 0.0
2018-Aug-13 04:30N 39°34' E 002°38'0 0.0
2018-Aug-13 03:57N 39°34' E 002°38'0 0.0
2018-Aug-13 03:30N 39°34' E 002°38'0 0.0
2018-Aug-13 03:00N 39°34' E 002°38'0 0.0
2018-Aug-13 02:30N 39°34' E 002°38'0 0.0
2018-Aug-13 02:00N 39°34' E 002°38'0 0.0
2018-Aug-13 01:24N 39°34' E 002°38'0 0.0
2018-Aug-13 01:00N 39°34' E 002°38'0 0.0
2018-Aug-13 00:30N 39°34' E 002°38'0 0.0
2018-Aug-13 00:00N 39°34' E 002°38'0 0.0
2018-Aug-12 23:30N 39°34' E 002°38'0 0.0
2018-Aug-12 23:00N 39°34' E 002°38'0 0.0
2018-Aug-12 22:30N 39°34' E 002°38'0 0.0
2018-Aug-12 21:51N 39°34' E 002°38'0 0.0
2018-Aug-12 21:24N 39°34' E 002°38'0 0.0
2018-Aug-12 21:00N 39°34' E 002°38'0 0.0
2018-Aug-12 20:30N 39°34' E 002°38'0 0.0
2018-Aug-12 19:42N 39°34' E 002°38'0 0.0
2018-Aug-12 19:30N 39°34' E 002°38'0 0.0
2018-Aug-12 18:57N 39°34' E 002°38'0 0.0
2018-Aug-12 18:12N 39°34' E 002°38'0 0.0
2018-Aug-12 17:57N 39°34' E 002°38'0 0.0
2018-Aug-12 17:30N 39°34' E 002°38'0 0.0
2018-Aug-12 17:00N 39°34' E 002°38'0 0.0
2018-Aug-12 16:27N 39°34' E 002°38'0 0.0
2018-Aug-12 16:00N 39°34' E 002°38'0 0.0
2018-Aug-12 15:27N 39°34' E 002°38'0 0.0
2018-Aug-12 14:51N 39°34' E 002°38'0 0.0
2018-Aug-12 14:30N 39°34' E 002°38'0 0.0
2018-Aug-12 14:00N 39°34' E 002°38'0 0.0
2018-Aug-12 13:27N 39°34' E 002°38'0 0.0
2018-Aug-12 12:48N 39°34' E 002°38'0 0.0
2018-Aug-12 12:30N 39°34' E 002°38'0 0.0
2018-Aug-12 12:00N 39°34' E 002°38'0 0.0
2018-Aug-12 11:30N 39°34' E 002°38'0 0.0
2018-Aug-12 10:57N 39°34' E 002°38'0 0.0
2018-Aug-12 10:27N 39°34' E 002°38'0 0.0
2018-Aug-12 09:57N 39°34' E 002°38'0 0.0
2018-Aug-12 09:30N 39°34' E 002°38'0 0.0
2018-Aug-12 08:54N 39°34' E 002°38'0 0.0
2018-Aug-12 08:30N 39°34' E 002°38'0 0.0
2018-Aug-12 07:57N 39°34' E 002°38'0 0.0
2018-Aug-12 07:30N 39°34' E 002°38'0 0.0
2018-Aug-12 06:51N 39°34' E 002°38'0 0.0
2018-Aug-12 06:27N 39°34' E 002°38'0 0.0
2018-Aug-12 06:00N 39°34' E 002°38'0 0.0
2018-Aug-12 05:30N 39°34' E 002°38'0 0.0
2018-Aug-12 05:00N 39°34' E 002°38'0 0.0
2018-Aug-12 04:30N 39°34' E 002°38'0 0.0
2018-Aug-12 03:57N 39°34' E 002°38'0 0.0
2018-Aug-12 03:24N 39°34' E 002°38'0 0.0
2018-Aug-12 03:00N 39°34' E 002°38'0 0.0
2018-Aug-12 02:30N 39°34' E 002°38'0 0.0
2018-Aug-12 02:00N 39°34' E 002°38'0 0.0
2018-Aug-12 01:30N 39°34' E 002°38'0 0.0
2018-Aug-12 01:00N 39°34' E 002°38'0 0.0
2018-Aug-12 00:30N 39°34' E 002°38'0 0.0
2018-Aug-12 00:00N 39°34' E 002°38'0 0.0
2018-Aug-11 23:30N 39°34' E 002°38'0 0.0
2018-Aug-11 22:57N 39°34' E 002°38'0 0.0
2018-Aug-11 22:30N 39°34' E 002°38'0 0.0
2018-Aug-11 22:00N 39°34' E 002°38'0 0.0
2018-Aug-11 21:30N 39°34' E 002°38'0 0.0
2018-Aug-11 20:58N 39°34' E 002°38'0 0.0
2018-Aug-11 20:28N 39°34' E 002°38'0 0.0
2018-Aug-11 19:58N 39°34' E 002°38'0 0.0
2018-Aug-11 19:28N 39°34' E 002°38'0 0.0
2018-Aug-11 18:58N 39°34' E 002°38'0 0.0
2018-Aug-11 18:22N 39°34' E 002°38'0 0.0
2018-Aug-11 17:58N 39°34' E 002°38'0 0.0
2018-Aug-11 17:28N 39°34' E 002°38'0 0.0
2018-Aug-11 16:52N 39°34' E 002°38'0 0.0
2018-Aug-11 16:28N 39°34' E 002°38'0 0.0
2018-Aug-11 15:58N 39°34' E 002°38'0 0.0
2018-Aug-11 15:28N 39°34' E 002°38'0 0.0
2018-Aug-11 14:55N 39°34' E 002°38'0 0.0
2018-Aug-11 14:25N 39°34' E 002°38'0 0.0
2018-Aug-11 13:49N 39°34' E 002°38'0 0.0
2018-Aug-11 13:25N 39°34' E 002°38'0 0.0
2018-Aug-11 12:55N 39°34' E 002°38'0 0.0
2018-Aug-11 12:25N 39°34' E 002°38'0 0.0
2018-Aug-11 11:58N 39°34' E 002°38'0 0.0
2018-Aug-11 11:28N 39°34' E 002°38'0 0.0
2018-Aug-11 10:55N 39°34' E 002°38'0 0.0
2018-Aug-11 10:28N 39°34' E 002°38'0 0.0
2018-Aug-11 09:58N 39°34' E 002°38'0 0.0
2018-Aug-11 09:28N 39°34' E 002°38'0 0.0
2018-Aug-11 08:55N 39°34' E 002°38'0 0.0
2018-Aug-11 08:28N 39°34' E 002°38'0 0.0
2018-Aug-11 07:58N 39°34' E 002°38'0 0.0
2018-Aug-11 07:28N 39°34' E 002°38'0 0.0
2018-Aug-10 17:03N 39°34' E 002°38'0 0.0
2018-Aug-10 17:00N 39°34' E 002°38'1 2.5
2018-Aug-10 16:30N 39°33' E 002°39'4 7.8
2018-Aug-10 16:00N 39°29' E 002°38'2 4.5
2018-Aug-10 15:28N 39°29' E 002°35'2 5.1
2018-Aug-10 15:00N 39°29' E 002°32'0 0.1
2018-Aug-10 14:26N 39°29' E 002°32'0 0.0
2018-Aug-10 13:59N 39°29' E 002°32'1 1.4
2018-Aug-10 13:30N 39°28' E 002°32'4 7.3
2018-Aug-10 13:00N 39°29' E 002°37'2 4.9
2018-Aug-10 12:30N 39°32' E 002°38'2 2.9
2018-Aug-10 11:58N 39°33' E 002°39'1 1.7
2018-Aug-10 11:28N 39°34' E 002°38'0 0.0
2018-Aug-09 19:34N 39°34' E 002°38'0 0.0
2018-Aug-09 19:28N 39°34' E 002°38'0 0.0
2018-Aug-09 18:58N 39°34' E 002°38'0 0.2
2018-Aug-09 18:30N 39°34' E 002°38'3 5.1
2018-Aug-09 18:00N 39°31' E 002°39'4 7.2
2018-Aug-09 17:30N 39°29' E 002°43'1 1.2
2018-Aug-09 17:00N 39°29' E 002°44'0 0.1
2018-Aug-09 16:30N 39°29' E 002°44'0 0.0
2018-Aug-09 16:00N 39°29' E 002°44'0 0.0
2018-Aug-09 15:30N 39°29' E 002°44'0 0.0
2018-Aug-09 15:00N 39°29' E 002°44'0 0.0
2018-Aug-09 14:30N 39°29' E 002°44'0 0.0
2018-Aug-09 14:00N 39°29' E 002°44'0 0.0
2018-Aug-09 13:30N 39°29' E 002°44'0 0.1
2018-Aug-09 13:00N 39°29' E 002°44'1 1.3
2018-Aug-09 12:30N 39°29' E 002°43'4 8.6
2018-Aug-09 12:00N 39°33' E 002°39'  
Track history (hours):
 
Tides and Currents Weather Stations Pressure Air Temp Water Temp Dewpoint Dewpoint Depression Visibility Wind Speed Wind Dir Waves Ship Positions

Sy Makai

Last reported at 2018-Aug-19 04:40 UTC. Time now 2018-Aug-19 15:18 UTC.
Position N 39°22' E 002°47'.

Length 24 m.

Type: Sailing vessel. MMSI: 215000861.

Date/timePositionNaut miles runAvg speedWind from/ knotsBaromVisibWave heightAir tempDewpointWater temp
2018-Aug-19 04:40N 39°22' E 002°47'1 8.8
2018-Aug-19 04:30N 39°22' E 002°45'4 8.6
2018-Aug-19 04:00N 39°26' E 002°42'4 8.6
2018-Aug-19 03:30N 39°30' E 002°40'4 8.2
2018-Aug-19 03:00N 39°34' E 002°38'  
2018-Aug-16 18:42N 39°34' E 002°38'0 0.0
2018-Aug-16 18:27N 39°34' E 002°38'0 0.0
2018-Aug-16 18:00N 39°34' E 002°38'0 0.7
2018-Aug-16 17:30N 39°34' E 002°38'3 6.3
2018-Aug-16 17:00N 39°30' E 002°38'2 4.8
2018-Aug-16 16:30N 39°31' E 002°35'0 0.8
2018-Aug-16 15:58N 39°32' E 002°35'0 0.0
2018-Aug-16 15:28N 39°32' E 002°35'0 0.0
2018-Aug-16 14:58N 39°32' E 002°35'0 0.7
2018-Aug-16 14:31N 39°32' E 002°35'3 5.1
2018-Aug-16 14:00N 39°30' E 002°37'2 4.8
2018-Aug-16 13:30N 39°32' E 002°39'2 4.8
2018-Aug-16 13:00N 39°34' E 002°38'0 0.0
2018-Aug-16 12:30N 39°34' E 002°38'0 0.0
2018-Aug-16 12:00N 39°34' E 002°38'0 0.0
2018-Aug-16 11:30N 39°34' E 002°38'0 0.0
2018-Aug-14 13:53N 39°34' E 002°38'0 0.0
2018-Aug-14 13:29N 39°34' E 002°38'0 0.0
2018-Aug-14 13:00N 39°34' E 002°38'2 4.6
2018-Aug-14 12:30N 39°32' E 002°39'3 5.8
2018-Aug-14 12:00N 39°30' E 002°35'4 7.1
2018-Aug-14 11:30N 39°28' E 002°33'2 3.8
2018-Aug-14 11:00N 39°26' E 002°31'1 0.0
2018-Aug-13 14:16N 39°27' E 002°31'2 8.0
2018-Aug-13 14:00N 39°28' E 002°33'2 3.3
2018-Aug-13 13:31N 39°29' E 002°34'4 8.1
2018-Aug-13 13:00N 39°30' E 002°39'2 4.5
2018-Aug-13 12:30N 39°33' E 002°39'2 3.1
2018-Aug-13 12:00N 39°34' E 002°38'0 0.0
2018-Aug-13 11:30N 39°34' E 002°38'0 0.0
2018-Aug-13 10:57N 39°34' E 002°38'0 0.0
2018-Aug-13 10:30N 39°34' E 002°38'0 0.0
2018-Aug-13 09:54N 39°34' E 002°38'0 0.0
2018-Aug-13 09:30N 39°34' E 002°38'0 0.0
2018-Aug-13 08:54N 39°34' E 002°38'0 0.0
2018-Aug-13 08:30N 39°34' E 002°38'0 0.0
2018-Aug-13 08:00N 39°34' E 002°38'0 0.0
2018-Aug-13 07:30N 39°34' E 002°38'0 0.0
2018-Aug-13 06:57N 39°34' E 002°38'0 0.0
2018-Aug-13 06:30N 39°34' E 002°38'0 0.0
2018-Aug-13 06:00N 39°34' E 002°38'0 0.0
2018-Aug-13 05:27N 39°34' E 002°38'0 0.0
2018-Aug-13 05:00N 39°34' E 002°38'0 0.0
2018-Aug-13 04:30N 39°34' E 002°38'0 0.0
2018-Aug-13 03:57N 39°34' E 002°38'0 0.0
2018-Aug-13 03:30N 39°34' E 002°38'0 0.0
2018-Aug-13 03:00N 39°34' E 002°38'0 0.0
2018-Aug-13 02:30N 39°34' E 002°38'0 0.0
2018-Aug-13 02:00N 39°34' E 002°38'0 0.0
2018-Aug-13 01:24N 39°34' E 002°38'0 0.0
2018-Aug-13 01:00N 39°34' E 002°38'0 0.0
2018-Aug-13 00:30N 39°34' E 002°38'0 0.0
2018-Aug-13 00:00N 39°34' E 002°38'0 0.0
2018-Aug-12 23:30N 39°34' E 002°38'0 0.0
2018-Aug-12 23:00N 39°34' E 002°38'0 0.0
2018-Aug-12 22:30N 39°34' E 002°38'0 0.0
2018-Aug-12 21:51N 39°34' E 002°38'0 0.0
2018-Aug-12 21:24N 39°34' E 002°38'0 0.0
2018-Aug-12 21:00N 39°34' E 002°38'0 0.0
2018-Aug-12 20:30N 39°34' E 002°38'0 0.0
2018-Aug-12 19:42N 39°34' E 002°38'0 0.0
2018-Aug-12 19:30N 39°34' E 002°38'0 0.0
2018-Aug-12 18:57N 39°34' E 002°38'0 0.0
2018-Aug-12 18:12N 39°34' E 002°38'0 0.0
2018-Aug-12 17:57N 39°34' E 002°38'0 0.0
2018-Aug-12 17:30N 39°34' E 002°38'0 0.0
2018-Aug-12 17:00N 39°34' E 002°38'0 0.0
2018-Aug-12 16:27N 39°34' E 002°38'0 0.0
2018-Aug-12 16:00N 39°34' E 002°38'0 0.0
2018-Aug-12 15:27N 39°34' E 002°38'0 0.0
2018-Aug-12 14:51N 39°34' E 002°38'0 0.0
2018-Aug-12 14:30N 39°34' E 002°38'0 0.0
2018-Aug-12 14:00N 39°34' E 002°38'0 0.0
2018-Aug-12 13:27N 39°34' E 002°38'0 0.0
2018-Aug-12 12:48N 39°34' E 002°38'0 0.0
2018-Aug-12 12:30N 39°34' E 002°38'0 0.0
2018-Aug-12 12:00N 39°34' E 002°38'0 0.0
2018-Aug-12 11:30N 39°34' E 002°38'0 0.0
2018-Aug-12 10:57N 39°34' E 002°38'0 0.0
2018-Aug-12 10:27N 39°34' E 002°38'0 0.0
2018-Aug-12 09:57N 39°34' E 002°38'0 0.0
2018-Aug-12 09:30N 39°34' E 002°38'0 0.0
2018-Aug-12 08:54N 39°34' E 002°38'0 0.0
2018-Aug-12 08:30N 39°34' E 002°38'0 0.0
2018-Aug-12 07:57N 39°34' E 002°38'0 0.0
2018-Aug-12 07:30N 39°34' E 002°38'0 0.0
2018-Aug-12 06:51N 39°34' E 002°38'0 0.0
2018-Aug-12 06:27N 39°34' E 002°38'0 0.0
2018-Aug-12 06:00N 39°34' E 002°38'0 0.0
2018-Aug-12 05:30N 39°34' E 002°38'0 0.0
2018-Aug-12 05:00N 39°34' E 002°38'0 0.0
2018-Aug-12 04:30N 39°34' E 002°38'0 0.0
2018-Aug-12 03:57N 39°34' E 002°38'0 0.0
2018-Aug-12 03:24N 39°34' E 002°38'0 0.0
2018-Aug-12 03:00N 39°34' E 002°38'0 0.0
2018-Aug-12 02:30N 39°34' E 002°38'0 0.0
2018-Aug-12 02:00N 39°34' E 002°38'0 0.0
2018-Aug-12 01:30N 39°34' E 002°38'0 0.0
2018-Aug-12 01:00N 39°34' E 002°38'0 0.0
2018-Aug-12 00:30N 39°34' E 002°38'0 0.0
2018-Aug-12 00:00N 39°34' E 002°38'0 0.0
2018-Aug-11 23:30N 39°34' E 002°38'0 0.0
2018-Aug-11 22:57N 39°34' E 002°38'0 0.0
2018-Aug-11 22:30N 39°34' E 002°38'0 0.0
2018-Aug-11 22:00N 39°34' E 002°38'0 0.0
2018-Aug-11 21:30N 39°34' E 002°38'0 0.0
2018-Aug-11 20:58N 39°34' E 002°38'0 0.0
2018-Aug-11 20:28N 39°34' E 002°38'0 0.0
2018-Aug-11 19:58N 39°34' E 002°38'0 0.0
2018-Aug-11 19:28N 39°34' E 002°38'0 0.0
2018-Aug-11 18:58N 39°34' E 002°38'0 0.0
2018-Aug-11 18:22N 39°34' E 002°38'0 0.0
2018-Aug-11 17:58N 39°34' E 002°38'0 0.0
2018-Aug-11 17:28N 39°34' E 002°38'0 0.0
2018-Aug-11 16:52N 39°34' E 002°38'0 0.0
2018-Aug-11 16:28N 39°34' E 002°38'0 0.0
2018-Aug-11 15:58N 39°34' E 002°38'0 0.0
2018-Aug-11 15:28N 39°34' E 002°38'0 0.0
2018-Aug-11 14:55N 39°34' E 002°38'0 0.0
2018-Aug-11 14:25N 39°34' E 002°38'0 0.0
2018-Aug-11 13:49N 39°34' E 002°38'0 0.0
2018-Aug-11 13:25N 39°34' E 002°38'0 0.0
2018-Aug-11 12:55N 39°34' E 002°38'0 0.0
2018-Aug-11 12:25N 39°34' E 002°38'0 0.0
2018-Aug-11 11:58N 39°34' E 002°38'0 0.0
2018-Aug-11 11:28N 39°34' E 002°38'0 0.0
2018-Aug-11 10:55N 39°34' E 002°38'0 0.0
2018-Aug-11 10:28N 39°34' E 002°38'0 0.0
2018-Aug-11 09:58N 39°34' E 002°38'0 0.0
2018-Aug-11 09:28N 39°34' E 002°38'0 0.0
2018-Aug-11 08:55N 39°34' E 002°38'0 0.0
2018-Aug-11 08:28N 39°34' E 002°38'0 0.0
2018-Aug-11 07:58N 39°34' E 002°38'0 0.0
2018-Aug-11 07:28N 39°34' E 002°38'0 0.0
2018-Aug-10 17:03N 39°34' E 002°38'0 0.0
2018-Aug-10 17:00N 39°34' E 002°38'1 2.5
2018-Aug-10 16:30N 39°33' E 002°39'4 7.8
2018-Aug-10 16:00N 39°29' E 002°38'2 4.5
2018-Aug-10 15:28N 39°29' E 002°35'2 5.1
2018-Aug-10 15:00N 39°29' E 002°32'0 0.1
2018-Aug-10 14:26N 39°29' E 002°32'0 0.0
2018-Aug-10 13:59N 39°29' E 002°32'1 1.4
2018-Aug-10 13:30N 39°28' E 002°32'4 7.3
2018-Aug-10 13:00N 39°29' E 002°37'2 4.9
2018-Aug-10 12:30N 39°32' E 002°38'2 2.9
2018-Aug-10 11:58N 39°33' E 002°39'1 1.7
2018-Aug-10 11:28N 39°34' E 002°38'0 0.0
2018-Aug-09 19:34N 39°34' E 002°38'0 0.0
2018-Aug-09 19:28N 39°34' E 002°38'0 0.0
2018-Aug-09 18:58N 39°34' E 002°38'0 0.2
2018-Aug-09 18:30N 39°34' E 002°38'3 5.1
2018-Aug-09 18:00N 39°31' E 002°39'4 7.2
2018-Aug-09 17:30N 39°29' E 002°43'1 1.2
2018-Aug-09 17:00N 39°29' E 002°44'0 0.1
2018-Aug-09 16:30N 39°29' E 002°44'0 0.0
2018-Aug-09 16:00N 39°29' E 002°44'0 0.0
2018-Aug-09 15:30N 39°29' E 002°44'0 0.0
2018-Aug-09 15:00N 39°29' E 002°44'0 0.0
2018-Aug-09 14:30N 39°29' E 002°44'0 0.0
2018-Aug-09 14:00N 39°29' E 002°44'0 0.0
2018-Aug-09 13:30N 39°29' E 002°44'0 0.1
2018-Aug-09 13:00N 39°29' E 002°44'1 1.3
2018-Aug-09 12:30N 39°29' E 002°43'4 8.6
2018-Aug-09 12:00N 39°33' E 002°39'  

Dump ship's entire track history